createdAt,value
2019-03-04T00:02:07.819Z,7.03
2019-03-04T00:04:36.222Z,6.63
2019-03-04T00:07:04.632Z,6.83
2019-03-04T00:09:33.202Z,6.83
2019-03-04T00:12:01.604Z,6.03
2019-03-04T00:14:30.003Z,5.90
2019-03-04T00:16:58.719Z,6.20
2019-03-04T00:19:27.196Z,5.03
2019-03-04T00:21:55.602Z,5.80
2019-03-04T00:24:24.034Z,6.87
2019-03-04T00:26:52.434Z,6.60
2019-03-04T00:29:21.025Z,5.77
2019-03-04T00:31:49.461Z,5.30
2019-03-04T00:34:17.861Z,5.63
2019-03-04T00:36:46.262Z,5.47
2019-03-04T00:39:14.769Z,5.50
2019-03-04T00:41:43.166Z,4.70
2019-03-04T00:44:11.593Z,5.90
2019-03-04T00:46:39.991Z,6.17
2019-03-04T00:49:08.380Z,5.20
2019-03-04T00:51:36.825Z,5.27
2019-03-04T00:54:05.218Z,5.53
2019-03-04T00:56:33.708Z,5.73
2019-03-04T00:59:02.843Z,4.10
2019-03-04T01:01:31.246Z,3.33
2019-03-04T01:03:59.645Z,4.63
2019-03-04T01:06:28.056Z,5.50
2019-03-04T01:08:56.460Z,4.57
2019-03-04T01:11:24.856Z,4.80
2019-03-04T01:13:53.286Z,3.43
2019-03-04T01:16:21.681Z,3.00
2019-03-04T01:18:50.113Z,4.17
2019-03-04T01:21:18.510Z,3.77
2019-03-04T01:23:46.926Z,3.13
2019-03-04T01:26:15.582Z,4.70
2019-03-04T01:28:44.000Z,3.40
2019-03-04T01:31:12.385Z,2.90
2019-03-04T01:33:40.814Z,2.23
2019-03-04T01:36:09.206Z,3.93
2019-03-04T01:38:37.642Z,3.87
2019-03-04T01:41:06.041Z,1.90
2019-03-04T01:43:34.446Z,2.90
2019-03-04T01:46:02.872Z,2.50
2019-03-04T01:48:31.272Z,3.53
2019-03-04T01:50:59.768Z,2.43
2019-03-04T01:53:28.222Z,1.47
2019-03-04T01:55:56.622Z,1.90
2019-03-04T01:58:25.090Z,2.13
2019-03-04T02:00:53.623Z,3.10
2019-03-04T02:03:22.016Z,2.37
2019-03-04T02:05:50.408Z,1.10
2019-03-04T02:08:19.402Z,2.07
2019-03-04T02:10:47.798Z,1.57
2019-03-04T02:13:16.201Z,1.60
2019-03-04T02:15:44.643Z,3.07
2019-03-04T02:18:13.049Z,2.45
2019-03-04T02:20:41.492Z,1.70
2019-03-04T02:23:09.915Z,2.63
2019-03-04T02:25:46.951Z,1.83
2019-03-04T02:28:15.373Z,2.17
2019-03-04T02:30:43.796Z,1.73
2019-03-04T02:33:12.286Z,1.67
2019-03-04T02:35:40.721Z,2.03
2019-03-04T02:38:09.148Z,1.40
2019-03-04T02:40:37.547Z,1.50
2019-03-04T02:43:05.999Z,3.30
2019-03-04T02:45:34.536Z,2.67
2019-03-04T02:48:02.940Z,1.80
2019-03-04T02:50:31.431Z,2.50
2019-03-04T02:52:59.976Z,2.20
2019-03-04T02:55:28.369Z,2.33
2019-03-04T02:57:56.807Z,1.87
2019-03-04T03:00:25.268Z,2.03
2019-03-04T03:02:53.701Z,2.83
2019-03-04T03:05:22.097Z,2.23
2019-03-04T03:07:50.513Z,3.10
2019-03-04T03:10:18.905Z,2.07
2019-03-04T03:12:47.311Z,2.27
2019-03-04T03:15:18.437Z,3.03
2019-03-04T03:17:46.856Z,2.87
2019-03-04T03:20:16.230Z,3.58
2019-03-04T03:22:44.742Z,3.13
2019-03-04T03:25:14.730Z,1.83
2019-03-04T03:27:43.142Z,2.53
2019-03-04T03:30:19.118Z,2.80
2019-03-04T03:32:47.542Z,2.53
2019-03-04T03:35:15.931Z,1.90
2019-03-04T03:37:44.349Z,2.90
2019-03-04T03:40:17.681Z,2.30
2019-03-04T03:42:46.081Z,1.93
2019-03-04T03:45:14.805Z,3.33
2019-03-04T03:47:43.226Z,2.43
2019-03-04T03:50:15.030Z,2.10
2019-03-04T03:52:43.477Z,1.63
2019-03-04T03:55:13.766Z,2.67
2019-03-04T03:57:42.176Z,2.03
2019-03-04T04:00:16.692Z,2.33
2019-03-04T04:02:45.093Z,2.77
2019-03-04T04:05:13.601Z,1.80
2019-03-04T04:07:42.073Z,2.43
2019-03-04T04:10:14.569Z,1.70
2019-03-04T04:12:43.058Z,2.53
2019-03-04T04:15:13.209Z,2.63
2019-03-04T04:17:42.466Z,1.93
2019-03-04T04:20:11.964Z,2.00
2019-03-04T04:22:40.413Z,3.43
2019-03-04T04:25:10.834Z,2.33
2019-03-04T04:27:39.587Z,2.97
2019-03-04T04:30:29.937Z,1.87
2019-03-04T04:32:58.378Z,3.00
2019-03-04T04:35:26.776Z,1.97
2019-03-04T04:37:55.184Z,2.00
2019-03-04T04:40:23.611Z,2.50
2019-03-04T04:42:52.009Z,2.67
2019-03-04T04:45:20.423Z,3.33
2019-03-04T04:47:48.824Z,3.40
2019-03-04T04:50:31.693Z,2.97
2019-03-04T04:53:00.096Z,3.17
2019-03-04T04:55:28.490Z,4.37
2019-03-04T04:57:56.904Z,1.83
2019-03-04T05:00:25.468Z,4.87
2019-03-04T05:02:53.863Z,2.50
2019-03-04T05:05:22.287Z,2.37
2019-03-04T05:07:50.686Z,2.30
2019-03-04T05:10:21.184Z,1.80
2019-03-04T05:12:49.624Z,2.43
2019-03-04T05:15:18.088Z,1.57
2019-03-04T05:17:47.463Z,1.97
2019-03-04T05:20:18.345Z,4.40
2019-03-04T05:22:46.741Z,2.43
2019-03-04T05:25:15.208Z,1.63
2019-03-04T05:27:43.646Z,2.83
2019-03-04T05:30:15.055Z,2.03
2019-03-04T05:32:43.479Z,2.77
2019-03-04T05:35:12.064Z,1.90
2019-03-04T05:37:40.522Z,5.10
2019-03-04T05:40:14.520Z,2.73
2019-03-04T05:42:42.984Z,2.57
2019-03-04T05:45:18.005Z,3.50
2019-03-04T05:47:46.492Z,2.27
2019-03-04T05:50:25.612Z,3.37
2019-03-04T05:52:54.010Z,3.73
2019-03-04T05:55:22.401Z,4.53
2019-03-04T05:57:50.825Z,4.20
2019-03-04T06:00:22.903Z,4.37
2019-03-04T06:02:53.760Z,3.33
2019-03-04T06:05:22.359Z,2.87
2019-03-04T06:07:58.472Z,3.07
2019-03-04T06:10:26.896Z,3.00
2019-03-04T06:12:55.963Z,2.70
2019-03-04T06:15:24.464Z,3.10
2019-03-04T06:17:52.848Z,2.33
2019-03-04T06:20:21.281Z,3.03
2019-03-04T06:22:49.676Z,2.87
2019-03-04T06:25:21.136Z,3.93
2019-03-04T06:27:49.570Z,1.67
2019-03-04T06:30:26.910Z,2.40
2019-03-04T06:32:55.319Z,2.67
2019-03-04T06:35:24.480Z,2.50
2019-03-04T06:37:52.887Z,3.37
2019-03-04T06:40:21.650Z,4.10
2019-03-04T06:42:50.370Z,2.43
2019-03-04T06:45:20.017Z,4.90
2019-03-04T06:47:48.426Z,2.03
2019-03-04T06:50:51.357Z,2.40
2019-03-04T06:53:32.101Z,2.60
2019-03-04T06:56:06.468Z,4.47
2019-03-04T06:58:40.453Z,2.97
2019-03-04T07:01:11.920Z,2.13
2019-03-04T07:03:41.053Z,3.03
2019-03-04T07:06:09.471Z,3.47
2019-03-04T07:08:40.986Z,2.60
2019-03-04T07:11:09.386Z,4.20
2019-03-04T07:13:37.781Z,2.27
2019-03-04T07:16:06.200Z,1.50
2019-03-04T07:18:34.596Z,1.67
2019-03-04T07:21:03.051Z,1.20
2019-03-04T07:23:31.481Z,2.00
2019-03-04T07:26:00.592Z,1.37
2019-03-04T07:28:29.014Z,3.10
2019-03-04T07:30:57.427Z,0.90
2019-03-04T07:33:25.814Z,2.93
2019-03-04T07:35:54.322Z,1.67
2019-03-04T07:38:25.781Z,1.70
2019-03-04T07:40:54.241Z,2.37
2019-03-04T07:43:22.665Z,2.23
2019-03-04T07:45:51.075Z,2.20
2019-03-04T07:48:19.470Z,3.30
2019-03-04T07:50:47.897Z,2.50
2019-03-04T07:53:16.294Z,2.70
2019-03-04T07:55:44.687Z,1.57
2019-03-04T07:58:13.113Z,0.77
2019-03-04T08:00:41.505Z,1.10
2019-03-04T08:03:09.895Z,1.90
2019-03-04T08:05:38.314Z,1.23
2019-03-04T08:08:12.299Z,2.87
2019-03-04T08:11:06.390Z,3.10
2019-03-04T08:13:55.322Z,1.47
2019-03-04T08:16:23.729Z,1.77
2019-03-04T08:18:52.120Z,1.33
2019-03-04T08:21:20.548Z,3.63
2019-03-04T08:23:48.940Z,1.70
2019-03-04T08:26:17.328Z,2.50
2019-03-04T08:28:46.052Z,2.67
2019-03-04T08:31:14.726Z,2.03
2019-03-04T08:33:43.129Z,2.07
2019-03-04T08:36:11.557Z,1.03
2019-03-04T08:38:39.953Z,3.53
2019-03-04T08:41:08.354Z,2.03
2019-03-04T08:43:36.784Z,2.60
2019-03-04T08:46:05.197Z,2.23
2019-03-04T08:48:33.591Z,4.80
2019-03-04T08:51:02.448Z,2.17
2019-03-04T08:53:31.105Z,2.97
2019-03-04T08:55:59.559Z,2.97
2019-03-04T08:58:27.996Z,2.77
2019-03-04T09:00:56.381Z,3.07
2019-03-04T09:03:24.803Z,2.47
2019-03-04T09:05:53.197Z,2.80
2019-03-04T09:08:21.585Z,5.60
2019-03-04T09:10:50.005Z,3.53
2019-03-04T09:13:18.412Z,3.77
2019-03-04T09:15:46.809Z,3.67
2019-03-04T09:18:15.284Z,3.70
2019-03-04T09:20:43.734Z,3.13
2019-03-04T09:23:12.207Z,7.67
2019-03-04T09:25:46.132Z,4.37
2019-03-04T09:28:14.530Z,5.23
2019-03-04T09:30:42.932Z,2.93
2019-03-04T09:33:11.348Z,4.47
2019-03-04T09:35:39.755Z,5.43
2019-03-04T09:38:08.152Z,7.83
2019-03-04T09:40:36.808Z,5.77
2019-03-04T09:43:06.645Z,5.60
2019-03-04T09:45:38.838Z,5.07
2019-03-04T09:48:05.620Z,5.80
2019-03-04T09:50:34.017Z,6.23
2019-03-04T09:53:02.417Z,4.80
2019-03-04T09:55:30.836Z,5.53
2019-03-04T09:57:59.323Z,5.83
2019-03-04T10:00:39.172Z,5.67
2019-03-04T10:03:16.788Z,7.33
2019-03-04T10:05:50.796Z,7.73
2019-03-04T10:08:32.384Z,9.30
2019-03-04T10:10:58.585Z,6.03
2019-03-04T10:13:45.225Z,5.50
2019-03-04T10:16:39.284Z,6.60
2019-03-04T10:19:13.668Z,6.37
2019-03-04T10:21:50.809Z,5.47
2019-03-04T10:24:28.189Z,6.87
2019-03-04T10:27:17.240Z,6.67
2019-03-04T10:30:05.201Z,6.47
2019-03-04T10:32:36.752Z,5.83
2019-03-04T10:35:14.409Z,4.97
2019-03-04T10:38:10.409Z,6.40
2019-03-04T10:41:05.248Z,6.07
2019-03-04T10:43:55.833Z,7.83
2019-03-04T10:46:33.320Z,5.13
2019-03-04T10:49:01.724Z,8.17
2019-03-04T10:51:30.143Z,7.53
2019-03-04T10:53:58.589Z,6.30
2019-03-04T10:56:26.988Z,7.07
2019-03-04T10:58:55.385Z,4.53
2019-03-04T11:01:30.479Z,4.77
2019-03-04T11:03:53.952Z,4.73
2019-03-04T11:06:22.344Z,6.78
2019-03-04T11:08:50.755Z,4.33
2019-03-04T11:11:29.275Z,4.47
2019-03-04T11:13:49.629Z,5.90
2019-03-04T11:16:18.020Z,5.47
2019-03-04T11:18:46.673Z,5.27
2019-03-04T11:21:15.073Z,4.40
2019-03-04T11:23:43.465Z,4.27
2019-03-04T11:26:12.067Z,3.93
2019-03-04T11:28:40.468Z,4.73
2019-03-04T11:31:08.857Z,9.77
2019-03-04T11:33:37.291Z,7.23
2019-03-04T11:36:05.688Z,5.60
2019-03-04T11:38:39.463Z,3.77
2019-03-04T11:41:10.032Z,3.30
2019-03-04T11:43:38.450Z,2.23
2019-03-04T11:46:07.672Z,4.35
2019-03-04T11:48:36.104Z,9.67
2019-03-04T11:51:04.769Z,2.40
2019-03-04T11:53:33.184Z,3.57
2019-03-04T11:56:01.616Z,2.27
2019-03-04T11:58:30.006Z,3.90
2019-03-04T12:01:02.704Z,2.80
2019-03-04T12:03:31.263Z,3.57
2019-03-04T12:06:00.188Z,2.70
2019-03-04T12:08:28.588Z,4.30
2019-03-04T12:10:57.015Z,5.67
2019-03-04T12:13:25.410Z,4.70
2019-03-04T12:15:53.909Z,2.53
2019-03-04T12:18:22.319Z,2.93
2019-03-04T12:20:50.700Z,2.70
2019-03-04T12:23:20.077Z,2.23
2019-03-04T12:25:48.500Z,2.70
2019-03-04T12:28:18.396Z,4.17
2019-03-04T12:30:46.783Z,5.87
2019-03-04T12:33:15.186Z,3.47
2019-03-04T12:35:44.644Z,5.57
2019-03-04T12:38:13.044Z,2.63
2019-03-04T12:40:41.432Z,2.77
2019-03-04T12:43:09.863Z,3.13
2019-03-04T12:45:38.250Z,1.40
2019-03-04T12:48:07.552Z,2.53
2019-03-04T12:50:37.774Z,1.13
2019-03-04T12:53:06.331Z,1.53
2019-03-04T12:55:34.731Z,1.63
2019-03-04T12:58:03.584Z,0.80
2019-03-04T13:00:33.986Z,2.53
2019-03-04T13:03:02.428Z,1.73
2019-03-04T13:05:30.829Z,1.20
2019-03-04T13:07:59.236Z,1.03
2019-03-04T13:10:27.762Z,2.17
2019-03-04T13:12:56.153Z,0.90
2019-03-04T13:15:26.776Z,1.37
2019-03-04T13:17:56.071Z,1.27
2019-03-04T13:20:26.601Z,4.10
2019-03-04T13:22:55.057Z,1.37
2019-03-04T13:25:23.486Z,0.97
2019-03-04T13:27:51.924Z,1.90
2019-03-04T13:30:27.567Z,2.67
2019-03-04T13:32:56.027Z,2.23
2019-03-04T13:35:26.833Z,3.07
2019-03-04T13:37:55.321Z,1.20
2019-03-04T13:40:23.844Z,2.87
2019-03-04T13:42:52.657Z,1.37
2019-03-04T13:45:21.122Z,2.07
2019-03-04T13:47:49.509Z,2.30
2019-03-04T13:50:23.837Z,2.20
2019-03-04T13:52:52.232Z,2.73
2019-03-04T13:55:23.966Z,1.90
2019-03-04T13:57:52.554Z,2.87
2019-03-04T14:00:36.233Z,3.70
2019-03-04T14:03:04.901Z,1.07
2019-03-04T14:05:33.411Z,1.30
2019-03-04T14:08:01.853Z,2.50
2019-03-04T14:10:44.080Z,2.47
2019-03-04T14:13:12.672Z,3.27
2019-03-04T14:15:42.512Z,2.13
2019-03-04T14:18:10.908Z,2.60
2019-03-04T14:20:39.409Z,3.10
2019-03-04T14:23:08.264Z,5.37
2019-03-04T14:25:36.755Z,3.00
2019-03-04T14:28:05.249Z,3.10
2019-03-04T14:30:33.641Z,2.57
2019-03-04T14:33:02.043Z,4.57
2019-03-04T14:35:30.620Z,3.13
2019-03-04T14:37:59.304Z,3.47
2019-03-04T14:40:27.850Z,2.43
2019-03-04T14:42:56.263Z,4.37
2019-03-04T14:45:28.026Z,3.87
2019-03-04T14:47:56.457Z,5.10
2019-03-04T14:50:24.928Z,2.92
2019-03-04T14:52:53.326Z,2.93
2019-03-04T14:55:26.592Z,4.53
2019-03-04T14:57:54.981Z,6.27
2019-03-04T15:00:38.221Z,4.75
2019-03-04T15:03:06.784Z,5.63
2019-03-04T15:05:35.640Z,6.23
2019-03-04T15:08:04.496Z,4.47
2019-03-04T15:10:32.912Z,3.53
2019-03-04T15:13:01.828Z,4.90
2019-03-04T15:15:32.438Z,6.07
2019-03-04T15:18:01.044Z,6.10
2019-03-04T15:20:30.760Z,3.10
2019-03-04T15:22:59.157Z,3.40
2019-03-04T15:25:41.488Z,4.80
2019-03-04T15:28:17.711Z,5.07
2019-03-04T15:30:51.748Z,3.30
2019-03-04T15:33:20.258Z,4.63
2019-03-04T15:35:48.905Z,7.20
2019-03-04T15:38:18.037Z,3.95
2019-03-04T15:40:46.424Z,3.83
2019-03-04T15:43:14.822Z,4.33
2019-03-04T15:45:44.888Z,4.23
2019-03-04T15:48:14.068Z,3.47
2019-03-04T15:50:42.522Z,5.87
2019-03-04T15:53:10.964Z,6.07
2019-03-04T15:55:39.516Z,3.63
2019-03-04T15:58:08.020Z,7.53
2019-03-04T16:00:36.577Z,4.40
2019-03-04T16:03:05.841Z,4.00
2019-03-04T16:05:34.472Z,6.93
2019-03-04T16:08:07.518Z,3.77
2019-03-04T16:10:36.641Z,5.17
2019-03-04T16:13:06.628Z,4.40
2019-03-04T16:15:37.050Z,5.27
2019-03-04T16:18:05.509Z,4.93
2019-03-04T16:20:34.101Z,7.63
2019-03-04T16:23:02.492Z,3.57
2019-03-04T16:25:31.092Z,3.43
2019-03-04T16:28:02.898Z,6.40
2019-03-04T16:30:31.325Z,5.03
2019-03-04T16:32:59.717Z,6.13
2019-03-04T16:35:28.732Z,4.50
2019-03-04T16:37:57.179Z,3.80
2019-03-04T16:40:26.016Z,5.67
2019-03-04T16:42:54.442Z,5.90
2019-03-04T16:45:23.576Z,5.00
2019-03-04T16:47:52.164Z,5.10
2019-03-04T16:50:29.085Z,4.23
2019-03-04T16:53:00.278Z,4.03
2019-03-04T16:55:28.663Z,5.13
2019-03-04T16:57:57.443Z,5.23
2019-03-04T17:00:25.999Z,6.07
2019-03-04T17:02:54.402Z,6.53
2019-03-04T17:05:22.839Z,3.13
2019-03-04T17:07:51.242Z,5.90
2019-03-04T17:10:22.190Z,3.80
2019-03-04T17:12:50.903Z,6.17
2019-03-04T17:15:21.318Z,4.67
2019-03-04T17:17:50.081Z,4.53
2019-03-04T17:20:19.516Z,4.78
2019-03-04T17:22:48.011Z,4.57
2019-03-04T17:25:19.027Z,3.43
2019-03-04T17:27:47.848Z,4.23
2019-03-04T17:30:18.986Z,8.23
2019-03-04T17:32:47.509Z,8.20
2019-03-04T17:35:20.030Z,6.27
2019-03-04T17:37:48.642Z,7.83
2019-03-04T17:40:24.382Z,7.70
2019-03-04T17:42:52.777Z,5.87
2019-03-04T17:45:24.324Z,5.23
2019-03-04T17:47:52.947Z,9.17
2019-03-04T17:50:33.143Z,7.17
2019-03-04T17:53:02.571Z,5.17
2019-03-04T17:55:31.156Z,6.77
2019-03-04T17:57:59.579Z,4.07
2019-03-04T18:00:28.276Z,3.83
2019-03-04T18:02:56.848Z,4.83
2019-03-04T18:05:25.272Z,3.80
2019-03-04T18:07:53.659Z,4.40
2019-03-04T18:10:22.232Z,3.30
2019-03-04T18:12:53.153Z,6.00
2019-03-04T18:15:23.497Z,5.13
2019-03-04T18:17:51.973Z,5.80
2019-03-04T18:20:20.405Z,7.20
2019-03-04T18:22:48.868Z,4.43
2019-03-04T18:25:26.549Z,5.10
2019-03-04T18:27:58.438Z,5.17
2019-03-04T18:30:41.783Z,7.37
2019-03-04T18:33:13.377Z,5.13
2019-03-04T18:35:50.382Z,4.07
2019-03-04T18:38:28.116Z,2.83
2019-03-04T18:41:02.237Z,6.87
2019-03-04T18:43:48.584Z,5.13
2019-03-04T18:46:48.630Z,5.83
2019-03-04T18:49:17.016Z,6.13
2019-03-04T18:51:45.445Z,7.77
2019-03-04T18:54:13.979Z,3.97
2019-03-04T18:56:42.393Z,5.40
2019-03-04T18:59:10.820Z,3.57
2019-03-04T19:01:39.207Z,4.60
2019-03-04T19:04:07.597Z,5.97
2019-03-04T19:06:36.020Z,5.07
2019-03-04T19:09:06.176Z,5.47
2019-03-04T19:11:34.584Z,6.97
2019-03-04T19:14:03.544Z,3.47
2019-03-04T19:16:31.959Z,6.27
2019-03-04T19:19:00.421Z,6.37
2019-03-04T19:21:28.851Z,6.03
2019-03-04T19:23:57.236Z,5.83
2019-03-04T19:26:25.633Z,5.63
2019-03-04T19:28:54.523Z,5.33
2019-03-04T19:31:22.917Z,5.30
2019-03-04T19:33:51.308Z,5.73
2019-03-04T19:36:19.749Z,5.80
2019-03-04T19:38:48.138Z,9.33
2019-03-04T19:41:16.524Z,5.97
2019-03-04T19:43:44.988Z,5.00
2019-03-04T19:46:13.452Z,4.57
2019-03-04T19:48:41.906Z,6.43
2019-03-04T19:51:10.342Z,5.33
2019-03-04T19:53:38.798Z,4.80
2019-03-04T19:56:07.636Z,6.40
2019-03-04T19:58:36.056Z,5.07
2019-03-04T20:01:05.028Z,3.93
2019-03-04T20:03:33.408Z,4.63
2019-03-04T20:06:04.081Z,7.40
2019-03-04T20:08:32.636Z,5.57
2019-03-04T20:11:01.106Z,8.63
2019-03-04T20:13:29.513Z,6.17
2019-03-04T20:15:57.968Z,5.23
2019-03-04T20:18:26.357Z,4.07
2019-03-04T20:20:55.223Z,9.00
2019-03-04T20:23:23.617Z,6.37
2019-03-04T20:25:53.145Z,6.57
2019-03-04T20:28:21.569Z,5.20
2019-03-04T20:30:50.095Z,4.47
2019-03-04T20:33:18.864Z,8.37
2019-03-04T20:35:48.793Z,6.13
2019-03-04T20:38:20.257Z,4.65
2019-03-04T20:40:48.685Z,5.37
2019-03-04T20:43:17.105Z,8.13
2019-03-04T20:45:45.493Z,6.43
2019-03-04T20:48:13.975Z,8.20
2019-03-04T20:50:42.364Z,4.83
2019-03-04T20:53:10.765Z,6.27
2019-03-04T20:55:39.184Z,7.13
2019-03-04T20:58:07.740Z,8.05
2019-03-04T21:00:38.204Z,5.67
2019-03-04T21:03:07.621Z,5.03
2019-03-04T21:05:37.403Z,5.37
2019-03-04T21:08:07.142Z,2.67
2019-03-04T21:10:35.739Z,3.60
2019-03-04T21:13:18.480Z,3.53
2019-03-04T21:15:46.950Z,2.40
2019-03-04T21:18:15.411Z,4.47
2019-03-04T21:20:44.426Z,3.90
2019-03-04T21:23:12.984Z,1.77
2019-03-04T21:25:59.754Z,3.40
2019-03-04T21:28:49.516Z,3.40
2019-03-04T21:31:21.004Z,3.97
2019-03-04T21:34:11.338Z,2.67
2019-03-04T21:36:48.746Z,3.87
2019-03-04T21:39:36.310Z,2.97
2019-03-04T21:42:16.766Z,2.27
2019-03-04T21:45:00.605Z,5.63
2019-03-04T21:47:41.142Z,2.90
2019-03-04T21:50:12.646Z,5.00
2019-03-04T21:53:00.869Z,3.70
2019-03-04T21:55:36.605Z,3.70
2019-03-04T21:58:05.432Z,4.77
2019-03-04T22:00:35.992Z,6.63
2019-03-04T22:03:07.611Z,4.10
2019-03-04T22:05:37.055Z,2.97
2019-03-04T22:08:05.608Z,5.20
2019-03-04T22:10:34.106Z,2.40
2019-03-04T22:13:02.742Z,4.40
2019-03-04T22:15:31.192Z,4.50
2019-03-04T22:18:01.196Z,6.23
2019-03-04T22:20:29.924Z,3.57
2019-03-04T22:22:58.339Z,2.93
2019-03-04T22:25:26.742Z,2.90
2019-03-04T22:27:55.217Z,3.07
2019-03-04T22:30:23.600Z,5.03
2019-03-04T22:32:51.992Z,3.90
2019-03-04T22:35:20.452Z,4.23
2019-03-04T22:37:48.915Z,5.77
2019-03-04T22:40:28.637Z,6.20
2019-03-04T22:42:57.205Z,4.93
2019-03-04T22:45:25.597Z,3.87
2019-03-04T22:47:54.037Z,4.97
2019-03-04T22:50:22.895Z,3.73
2019-03-04T22:52:51.368Z,6.03
2019-03-04T22:55:28.663Z,7.20
2019-03-04T22:57:57.046Z,5.23
2019-03-04T23:00:54.620Z,5.20
2019-03-04T23:03:28.228Z,4.93
2019-03-04T23:06:08.620Z,6.40
2019-03-04T23:08:37.013Z,5.07
2019-03-04T23:11:05.684Z,5.10
2019-03-04T23:13:48.927Z,7.00
2019-03-04T23:16:20.651Z,8.00
2019-03-04T23:18:49.105Z,3.30
2019-03-04T23:21:17.604Z,4.63
2019-03-04T23:23:45.997Z,4.17
2019-03-04T23:26:14.388Z,4.23
2019-03-04T23:28:42.802Z,4.87
2019-03-04T23:31:11.256Z,3.70
2019-03-04T23:33:39.652Z,4.30
2019-03-04T23:36:08.076Z,7.57
2019-03-04T23:38:36.481Z,6.50
2019-03-04T23:41:04.940Z,5.07
2019-03-04T23:43:33.450Z,5.13
2019-03-04T23:46:01.835Z,6.80
2019-03-04T23:48:30.233Z,7.63
2019-03-04T23:50:58.791Z,6.23
2019-03-04T23:53:27.193Z,7.23
2019-03-04T23:55:55.596Z,6.73
2019-03-04T23:58:24.333Z,6.63
